sensor_id;sensor_type;location;lat;lon;timestamp;P1;durP1;ratioP1;P2;durP2;ratioP2
57752;SDS011;43583;53.132;6.574;2023-07-02T00:00:33;11.48;;;3.22;;
57752;SDS011;43583;53.132;6.574;2023-07-02T00:03:00;9.73;;;2.85;;
57752;SDS011;43583;53.132;6.574;2023-07-02T00:05:26;9.40;;;2.13;;
57752;SDS011;43583;53.132;6.574;2023-07-02T00:07:51;11.40;;;3.08;;
57752;SDS011;43583;53.132;6.574;2023-07-02T00:10:17;7.13;;;2.97;;
57752;SDS011;43583;53.132;6.574;2023-07-02T00:12:42;11.30;;;3.10;;
57752;SDS011;43583;53.132;6.574;2023-07-02T00:15:09;8.32;;;3.03;;
57752;SDS011;43583;53.132;6.574;2023-07-02T00:17:35;9.15;;;2.40;;
57752;SDS011;43583;53.132;6.574;2023-07-02T00:20:06;8.93;;;2.63;;
57752;SDS011;43583;53.132;6.574;2023-07-02T00:22:39;10.73;;;3.20;;
57752;SDS011;43583;53.132;6.574;2023-07-02T00:25:07;9.68;;;3.28;;
57752;SDS011;43583;53.132;6.574;2023-07-02T00:27:32;5.45;;;2.50;;
57752;SDS011;43583;53.132;6.574;2023-07-02T00:29:58;10.55;;;3.47;;
57752;SDS011;43583;53.132;6.574;2023-07-02T00:32:24;11.40;;;4.13;;
57752;SDS011;43583;53.132;6.574;2023-07-02T00:34:49;9.90;;;3.63;;
57752;SDS011;43583;53.132;6.574;2023-07-02T00:37:15;14.55;;;3.42;;
57752;SDS011;43583;53.132;6.574;2023-07-02T00:39:40;13.40;;;3.67;;
57752;SDS011;43583;53.132;6.574;2023-07-02T00:42:06;12.27;;;3.05;;
57752;SDS011;43583;53.132;6.574;2023-07-02T00:44:33;11.10;;;3.20;;
57752;SDS011;43583;53.132;6.574;2023-07-02T00:47:05;11.40;;;3.08;;
57752;SDS011;43583;53.132;6.574;2023-07-02T00:49:32;12.60;;;3.33;;
57752;SDS011;43583;53.132;6.574;2023-07-02T00:51:58;8.82;;;2.85;;
57752;SDS011;43583;53.132;6.574;2023-07-02T00:54:24;13.15;;;3.45;;
57752;SDS011;43583;53.132;6.574;2023-07-02T00:56:52;13.32;;;3.42;;
57752;SDS011;43583;53.132;6.574;2023-07-02T00:59:18;10.35;;;3.30;;
57752;SDS011;43583;53.132;6.574;2023-07-02T01:01:43;10.65;;;3.40;;
57752;SDS011;43583;53.132;6.574;2023-07-02T01:04:16;9.63;;;3.60;;
57752;SDS011;43583;53.132;6.574;2023-07-02T01:06:43;12.27;;;2.90;;
57752;SDS011;43583;53.132;6.574;2023-07-02T01:09:09;13.48;;;3.50;;
57752;SDS011;43583;53.132;6.574;2023-07-02T01:14:17;13.05;;;2.88;;
57752;SDS011;43583;53.132;6.574;2023-07-02T01:16:49;11.40;;;2.97;;
57752;SDS011;43583;53.132;6.574;2023-07-02T01:22:17;9.48;;;2.75;;
57752;SDS011;43583;53.132;6.574;2023-07-02T01:24:47;9.50;;;3.22;;
57752;SDS011;43583;53.132;6.574;2023-07-02T01:27:13;9.82;;;3.22;;
57752;SDS011;43583;53.132;6.574;2023-07-02T01:29:43;10.90;;;4.03;;
57752;SDS011;43583;53.132;6.574;2023-07-02T01:32:11;9.15;;;3.40;;
57752;SDS011;43583;53.132;6.574;2023-07-02T01:34:37;11.77;;;3.85;;
57752;SDS011;43583;53.132;6.574;2023-07-02T01:37:03;13.82;;;3.50;;
57752;SDS011;43583;53.132;6.574;2023-07-02T01:39:29;14.05;;;4.68;;
57752;SDS011;43583;53.132;6.574;2023-07-02T01:41:55;13.35;;;3.78;;
57752;SDS011;43583;53.132;6.574;2023-07-02T01:44:36;14.90;;;3.83;;
57752;SDS011;43583;53.132;6.574;2023-07-02T01:47:02;12.52;;;3.80;;
57752;SDS011;43583;53.132;6.574;2023-07-02T01:49:28;16.00;;;3.85;;
57752;SDS011;43583;53.132;6.574;2023-07-02T01:51:54;20.50;;;5.97;;
57752;SDS011;43583;53.132;6.574;2023-07-02T01:54:21;11.18;;;3.30;;
57752;SDS011;43583;53.132;6.574;2023-07-02T01:56:48;7.20;;;3.47;;
57752;SDS011;43583;53.132;6.574;2023-07-02T01:59:14;15.27;;;3.97;;
57752;SDS011;43583;53.132;6.574;2023-07-02T02:01:41;12.45;;;3.88;;
57752;SDS011;43583;53.132;6.574;2023-07-02T02:04:08;10.68;;;3.40;;
57752;SDS011;43583;53.132;6.574;2023-07-02T02:06:34;16.98;;;3.38;;
57752;SDS011;43583;53.132;6.574;2023-07-02T02:09:00;14.00;;;4.18;;
57752;SDS011;43583;53.132;6.574;2023-07-02T02:11:26;13.20;;;4.63;;
57752;SDS011;43583;53.132;6.574;2023-07-02T02:13:51;11.63;;;3.83;;
57752;SDS011;43583;53.132;6.574;2023-07-02T02:16:17;18.33;;;4.30;;
57752;SDS011;43583;53.132;6.574;2023-07-02T02:18:42;15.95;;;3.47;;
57752;SDS011;43583;53.132;6.574;2023-07-02T02:21:08;17.55;;;4.18;;
57752;SDS011;43583;53.132;6.574;2023-07-02T02:23:34;15.15;;;3.65;;
57752;SDS011;43583;53.132;6.574;2023-07-02T02:26:00;10.77;;;3.50;;
57752;SDS011;43583;53.132;6.574;2023-07-02T02:28:26;17.60;;;3.67;;
57752;SDS011;43583;53.132;6.574;2023-07-02T02:30:52;12.00;;;3.67;;
57752;SDS011;43583;53.132;6.574;2023-07-02T02:33:17;13.60;;;3.80;;
57752;SDS011;43583;53.132;6.574;2023-07-02T02:35:43;18.20;;;4.38;;
57752;SDS011;43583;53.132;6.574;2023-07-02T02:38:09;12.63;;;4.03;;
57752;SDS011;43583;53.132;6.574;2023-07-02T02:40:34;13.95;;;3.75;;
57752;SDS011;43583;53.132;6.574;2023-07-02T02:43:00;9.27;;;3.38;;
57752;SDS011;43583;53.132;6.574;2023-07-02T02:45:25;21.98;;;4.25;;
57752;SDS011;43583;53.132;6.574;2023-07-02T02:47:51;12.80;;;4.10;;
57752;SDS011;43583;53.132;6.574;2023-07-02T02:50:17;13.02;;;3.97;;
57752;SDS011;43583;53.132;6.574;2023-07-02T02:52:42;15.52;;;3.95;;
57752;SDS011;43583;53.132;6.574;2023-07-02T02:55:09;11.48;;;4.10;;
57752;SDS011;43583;53.132;6.574;2023-07-02T02:57:35;13.70;;;4.07;;
57752;SDS011;43583;53.132;6.574;2023-07-02T03:00:01;10.07;;;3.40;;
57752;SDS011;43583;53.132;6.574;2023-07-02T03:02:27;17.77;;;4.55;;
57752;SDS011;43583;53.132;6.574;2023-07-02T03:04:53;16.40;;;4.03;;
57752;SDS011;43583;53.132;6.574;2023-07-02T03:07:19;19.30;;;4.50;;
57752;SDS011;43583;53.132;6.574;2023-07-02T03:09:44;14.23;;;4.03;;
57752;SDS011;43583;53.132;6.574;2023-07-02T03:12:10;16.25;;;4.18;;
57752;SDS011;43583;53.132;6.574;2023-07-02T03:14:36;12.13;;;4.25;;
57752;SDS011;43583;53.132;6.574;2023-07-02T03:17:02;15.07;;;4.13;;
57752;SDS011;43583;53.132;6.574;2023-07-02T03:19:28;12.73;;;5.22;;
57752;SDS011;43583;53.132;6.574;2023-07-02T03:21:53;16.77;;;4.38;;
57752;SDS011;43583;53.132;6.574;2023-07-02T03:24:19;13.95;;;4.47;;
57752;SDS011;43583;53.132;6.574;2023-07-02T03:26:44;13.57;;;4.55;;
57752;SDS011;43583;53.132;6.574;2023-07-02T03:29:10;18.63;;;4.68;;
57752;SDS011;43583;53.132;6.574;2023-07-02T03:31:36;12.95;;;3.80;;
57752;SDS011;43583;53.132;6.574;2023-07-02T03:34:06;18.25;;;4.65;;
57752;SDS011;43583;53.132;6.574;2023-07-02T03:36:34;14.10;;;3.80;;
57752;SDS011;43583;53.132;6.574;2023-07-02T03:38:59;17.25;;;4.50;;
57752;SDS011;43583;53.132;6.574;2023-07-02T03:41:25;13.68;;;3.90;;
57752;SDS011;43583;53.132;6.574;2023-07-02T03:43:50;11.27;;;3.95;;
57752;SDS011;43583;53.132;6.574;2023-07-02T03:46:16;11.43;;;3.78;;
57752;SDS011;43583;53.132;6.574;2023-07-02T03:48:42;14.80;;;4.18;;
57752;SDS011;43583;53.132;6.574;2023-07-02T03:51:07;14.05;;;5.60;;
57752;SDS011;43583;53.132;6.574;2023-07-02T03:53:33;12.82;;;3.63;;
57752;SDS011;43583;53.132;6.574;2023-07-02T03:55:59;15.10;;;4.82;;
57752;SDS011;43583;53.132;6.574;2023-07-02T03:58:24;12.20;;;3.40;;
57752;SDS011;43583;53.132;6.574;2023-07-02T04:00:50;19.65;;;4.53;;
57752;SDS011;43583;53.132;6.574;2023-07-02T04:03:16;16.42;;;4.32;;
57752;SDS011;43583;53.132;6.574;2023-07-02T04:05:42;10.23;;;3.35;;
57752;SDS011;43583;53.132;6.574;2023-07-02T04:08:08;14.07;;;4.03;;
57752;SDS011;43583;53.132;6.574;2023-07-02T04:10:34;14.00;;;3.67;;
57752;SDS011;43583;53.132;6.574;2023-07-02T04:12:59;17.05;;;4.90;;
57752;SDS011;43583;53.132;6.574;2023-07-02T04:15:25;9.77;;;3.45;;
57752;SDS011;43583;53.132;6.574;2023-07-02T04:17:51;11.73;;;3.72;;
57752;SDS011;43583;53.132;6.574;2023-07-02T04:20:17;11.98;;;4.07;;
57752;SDS011;43583;53.132;6.574;2023-07-02T04:22:44;13.82;;;4.20;;
57752;SDS011;43583;53.132;6.574;2023-07-02T04:25:10;12.65;;;3.53;;
57752;SDS011;43583;53.132;6.574;2023-07-02T04:27:40;15.02;;;4.25;;
57752;SDS011;43583;53.132;6.574;2023-07-02T04:30:06;15.80;;;4.00;;
57752;SDS011;43583;53.132;6.574;2023-07-02T04:32:33;11.55;;;3.55;;
57752;SDS011;43583;53.132;6.574;2023-07-02T04:34:59;12.95;;;3.58;;
57752;SDS011;43583;53.132;6.574;2023-07-02T04:37:24;15.90;;;4.25;;
57752;SDS011;43583;53.132;6.574;2023-07-02T04:39:50;13.00;;;3.53;;
57752;SDS011;43583;53.132;6.574;2023-07-02T04:42:15;9.52;;;3.35;;
57752;SDS011;43583;53.132;6.574;2023-07-02T04:44:41;9.55;;;3.53;;
57752;SDS011;43583;53.132;6.574;2023-07-02T04:47:08;15.90;;;4.03;;
57752;SDS011;43583;53.132;6.574;2023-07-02T04:49:34;14.15;;;3.13;;
57752;SDS011;43583;53.132;6.574;2023-07-02T04:51:59;10.57;;;3.08;;
57752;SDS011;43583;53.132;6.574;2023-07-02T04:54:25;10.13;;;3.92;;
57752;SDS011;43583;53.132;6.574;2023-07-02T04:56:50;14.85;;;3.72;;
57752;SDS011;43583;53.132;6.574;2023-07-02T04:59:16;12.13;;;3.38;;
57752;SDS011;43583;53.132;6.574;2023-07-02T05:01:42;15.50;;;3.70;;
57752;SDS011;43583;53.132;6.574;2023-07-02T05:04:09;15.63;;;4.45;;
57752;SDS011;43583;53.132;6.574;2023-07-02T05:06:36;11.98;;;3.80;;
57752;SDS011;43583;53.132;6.574;2023-07-02T05:09:02;13.55;;;3.33;;
57752;SDS011;43583;53.132;6.574;2023-07-02T05:11:27;12.32;;;3.88;;
57752;SDS011;43583;53.132;6.574;2023-07-02T05:13:53;10.38;;;3.38;;
57752;SDS011;43583;53.132;6.574;2023-07-02T05:16:18;9.07;;;2.58;;
57752;SDS011;43583;53.132;6.574;2023-07-02T05:18:44;10.88;;;2.80;;
57752;SDS011;43583;53.132;6.574;2023-07-02T05:21:10;10.38;;;2.17;;
57752;SDS011;43583;53.132;6.574;2023-07-02T05:23:36;8.98;;;3.05;;
57752;SDS011;43583;53.132;6.574;2023-07-02T05:26:02;9.10;;;2.28;;
57752;SDS011;43583;53.132;6.574;2023-07-02T05:28:28;8.68;;;2.05;;
57752;SDS011;43583;53.132;6.574;2023-07-02T05:30:53;9.82;;;2.42;;
57752;SDS011;43583;53.132;6.574;2023-07-02T05:33:19;8.32;;;1.80;;
57752;SDS011;43583;53.132;6.574;2023-07-02T05:35:47;12.27;;;2.13;;
57752;SDS011;43583;53.132;6.574;2023-07-02T05:38:12;6.85;;;2.08;;
57752;SDS011;43583;53.132;6.574;2023-07-02T05:40:38;5.70;;;1.85;;
57752;SDS011;43583;53.132;6.574;2023-07-02T05:43:04;7.68;;;2.17;;
57752;SDS011;43583;53.132;6.574;2023-07-02T05:45:29;11.63;;;2.63;;
57752;SDS011;43583;53.132;6.574;2023-07-02T05:47:55;7.13;;;2.35;;
57752;SDS011;43583;53.132;6.574;2023-07-02T05:50:21;6.57;;;1.73;;
57752;SDS011;43583;53.132;6.574;2023-07-02T05:52:46;9.43;;;2.42;;
57752;SDS011;43583;53.132;6.574;2023-07-02T05:55:12;6.13;;;1.90;;
57752;SDS011;43583;53.132;6.574;2023-07-02T05:57:38;8.50;;;2.25;;
57752;SDS011;43583;53.132;6.574;2023-07-02T06:00:07;9.00;;;2.30;;
57752;SDS011;43583;53.132;6.574;2023-07-02T06:02:33;10.48;;;2.13;;
57752;SDS011;43583;53.132;6.574;2023-07-02T06:04:59;6.32;;;1.63;;
57752;SDS011;43583;53.132;6.574;2023-07-02T06:07:24;9.13;;;1.70;;
57752;SDS011;43583;53.132;6.574;2023-07-02T06:09:50;8.55;;;1.98;;
57752;SDS011;43583;53.132;6.574;2023-07-02T06:12:16;7.30;;;2.33;;
57752;SDS011;43583;53.132;6.574;2023-07-02T06:14:41;9.18;;;2.10;;
57752;SDS011;43583;53.132;6.574;2023-07-02T06:17:07;7.20;;;1.42;;
57752;SDS011;43583;53.132;6.574;2023-07-02T06:19:33;7.32;;;1.95;;
57752;SDS011;43583;53.132;6.574;2023-07-02T06:21:59;8.82;;;1.90;;
57752;SDS011;43583;53.132;6.574;2023-07-02T06:24:25;9.07;;;2.25;;
57752;SDS011;43583;53.132;6.574;2023-07-02T06:26:50;8.32;;;1.98;;
57752;SDS011;43583;53.132;6.574;2023-07-02T06:29:16;6.75;;;1.73;;
57752;SDS011;43583;53.132;6.574;2023-07-02T06:31:41;11.10;;;2.03;;
57752;SDS011;43583;53.132;6.574;2023-07-02T06:34:07;5.25;;;1.58;;
57752;SDS011;43583;53.132;6.574;2023-07-02T06:36:33;12.10;;;1.80;;
57752;SDS011;43583;53.132;6.574;2023-07-02T06:38:59;9.13;;;2.05;;
57752;SDS011;43583;53.132;6.574;2023-07-02T06:41:25;7.82;;;2.42;;
57752;SDS011;43583;53.132;6.574;2023-07-02T06:43:51;7.80;;;1.75;;
57752;SDS011;43583;53.132;6.574;2023-07-02T06:46:16;7.63;;;1.88;;
57752;SDS011;43583;53.132;6.574;2023-07-02T06:48:42;5.07;;;1.65;;
57752;SDS011;43583;53.132;6.574;2023-07-02T06:51:07;8.93;;;2.10;;
57752;SDS011;43583;53.132;6.574;2023-07-02T06:53:33;12.07;;;2.13;;
57752;SDS011;43583;53.132;6.574;2023-07-02T06:56:00;6.13;;;1.42;;
57752;SDS011;43583;53.132;6.574;2023-07-02T06:58:26;3.42;;;0.82;;
57752;SDS011;43583;53.132;6.574;2023-07-02T07:00:51;7.97;;;1.30;;
57752;SDS011;43583;53.132;6.574;2023-07-02T07:03:17;5.38;;;0.75;;
57752;SDS011;43583;53.132;6.574;2023-07-02T07:05:42;4.90;;;1.25;;
57752;SDS011;43583;53.132;6.574;2023-07-02T07:08:08;2.13;;;0.60;;
57752;SDS011;43583;53.132;6.574;2023-07-02T07:10:33;3.13;;;0.77;;
57752;SDS011;43583;53.132;6.574;2023-07-02T07:13:02;2.90;;;0.52;;
57752;SDS011;43583;53.132;6.574;2023-07-02T07:15:30;6.03;;;0.88;;
57752;SDS011;43583;53.132;6.574;2023-07-02T07:17:57;3.20;;;0.80;;
57752;SDS011;43583;53.132;6.574;2023-07-02T07:20:22;2.10;;;0.50;;
57752;SDS011;43583;53.132;6.574;2023-07-02T07:22:48;3.10;;;0.80;;
57752;SDS011;43583;53.132;6.574;2023-07-02T07:25:14;2.17;;;0.40;;
57752;SDS011;43583;53.132;6.574;2023-07-02T07:27:39;2.63;;;0.85;;
57752;SDS011;43583;53.132;6.574;2023-07-02T07:30:05;4.95;;;0.73;;
57752;SDS011;43583;53.132;6.574;2023-07-02T07:32:31;3.00;;;0.80;;
57752;SDS011;43583;53.132;6.574;2023-07-02T07:34:57;5.35;;;0.45;;
57752;SDS011;43583;53.132;6.574;2023-07-02T07:37:23;3.22;;;0.47;;
57752;SDS011;43583;53.132;6.574;2023-07-02T07:39:50;3.20;;;0.70;;
57752;SDS011;43583;53.132;6.574;2023-07-02T07:42:16;5.10;;;0.57;;
57752;SDS011;43583;53.132;6.574;2023-07-02T07:44:47;4.63;;;0.50;;
57752;SDS011;43583;53.132;6.574;2023-07-02T07:47:12;4.60;;;1.02;;
57752;SDS011;43583;53.132;6.574;2023-07-02T07:49:38;3.38;;;0.60;;
57752;SDS011;43583;53.132;6.574;2023-07-02T07:52:04;2.53;;;0.60;;
57752;SDS011;43583;53.132;6.574;2023-07-02T07:54:32;2.72;;;0.68;;
57752;SDS011;43583;53.132;6.574;2023-07-02T07:57:00;4.70;;;0.40;;
57752;SDS011;43583;53.132;6.574;2023-07-02T07:59:27;3.35;;;0.40;;
57752;SDS011;43583;53.132;6.574;2023-07-02T08:01:52;4.43;;;0.60;;
57752;SDS011;43583;53.132;6.574;2023-07-02T08:04:18;2.70;;;0.60;;
57752;SDS011;43583;53.132;6.574;2023-07-02T08:06:44;2.35;;;0.50;;
57752;SDS011;43583;53.132;6.574;2023-07-02T08:09:09;2.22;;;0.30;;
57752;SDS011;43583;53.132;6.574;2023-07-02T08:11:36;5.85;;;0.82;;
57752;SDS011;43583;53.132;6.574;2023-07-02T08:14:01;4.97;;;0.88;;
57752;SDS011;43583;53.132;6.574;2023-07-02T08:16:27;2.45;;;0.57;;
57752;SDS011;43583;53.132;6.574;2023-07-02T08:18:52;1.40;;;0.52;;
57752;SDS011;43583;53.132;6.574;2023-07-02T08:21:18;6.07;;;0.82;;
57752;SDS011;43583;53.132;6.574;2023-07-02T08:23:44;3.90;;;0.63;;
57752;SDS011;43583;53.132;6.574;2023-07-02T08:26:09;5.43;;;0.75;;
57752;SDS011;43583;53.132;6.574;2023-07-02T08:28:36;4.30;;;0.90;;
57752;SDS011;43583;53.132;6.574;2023-07-02T08:31:03;4.15;;;0.60;;
57752;SDS011;43583;53.132;6.574;2023-07-02T08:33:29;7.25;;;0.68;;
57752;SDS011;43583;53.132;6.574;2023-07-02T08:35:54;4.80;;;0.40;;
57752;SDS011;43583;53.132;6.574;2023-07-02T08:38:20;6.22;;;0.75;;
57752;SDS011;43583;53.132;6.574;2023-07-02T08:40:46;3.00;;;0.43;;
57752;SDS011;43583;53.132;6.574;2023-07-02T08:43:13;2.92;;;0.32;;
57752;SDS011;43583;53.132;6.574;2023-07-02T08:45:40;4.25;;;0.75;;
57752;SDS011;43583;53.132;6.574;2023-07-02T08:48:07;4.35;;;1.10;;
57752;SDS011;43583;53.132;6.574;2023-07-02T08:50:33;7.28;;;1.23;;
57752;SDS011;43583;53.132;6.574;2023-07-02T08:52:59;3.45;;;0.93;;
57752;SDS011;43583;53.132;6.574;2023-07-02T08:55:24;5.18;;;0.85;;
57752;SDS011;43583;53.132;6.574;2023-07-02T08:57:53;5.90;;;1.15;;
57752;SDS011;43583;53.132;6.574;2023-07-02T09:00:19;4.68;;;1.20;;
57752;SDS011;43583;53.132;6.574;2023-07-02T09:02:46;4.72;;;0.98;;
57752;SDS011;43583;53.132;6.574;2023-07-02T09:05:12;5.47;;;1.17;;
57752;SDS011;43583;53.132;6.574;2023-07-02T09:07:47;4.50;;;1.55;;
57752;SDS011;43583;53.132;6.574;2023-07-02T09:10:30;4.85;;;1.77;;
57752;SDS011;43583;53.132;6.574;2023-07-02T09:13:03;5.32;;;0.80;;
57752;SDS011;43583;53.132;6.574;2023-07-02T09:15:34;6.78;;;0.90;;
57752;SDS011;43583;53.132;6.574;2023-07-02T09:18:01;3.80;;;0.43;;
57752;SDS011;43583;53.132;6.574;2023-07-02T09:20:32;5.72;;;1.02;;
57752;SDS011;43583;53.132;6.574;2023-07-02T09:22:58;7.35;;;0.88;;
57752;SDS011;43583;53.132;6.574;2023-07-02T09:25:33;6.63;;;0.75;;
57752;SDS011;43583;53.132;6.574;2023-07-02T09:28:02;7.97;;;1.25;;
57752;SDS011;43583;53.132;6.574;2023-07-02T09:30:48;4.95;;;0.50;;
57752;SDS011;43583;53.132;6.574;2023-07-02T09:33:20;4.43;;;0.45;;
57752;SDS011;43583;53.132;6.574;2023-07-02T09:35:47;3.13;;;0.60;;
57752;SDS011;43583;53.132;6.574;2023-07-02T09:38:13;4.18;;;0.45;;
57752;SDS011;43583;53.132;6.574;2023-07-02T09:40:44;5.00;;;0.47;;
57752;SDS011;43583;53.132;6.574;2023-07-02T09:43:12;5.75;;;0.85;;
57752;SDS011;43583;53.132;6.574;2023-07-02T09:45:42;3.90;;;0.60;;
57752;SDS011;43583;53.132;6.574;2023-07-02T09:48:15;2.80;;;0.35;;
57752;SDS011;43583;53.132;6.574;2023-07-02T09:50:45;3.33;;;0.40;;
57752;SDS011;43583;53.132;6.574;2023-07-02T09:53:13;3.47;;;0.45;;
57752;SDS011;43583;53.132;6.574;2023-07-02T09:55:39;6.20;;;0.93;;
57752;SDS011;43583;53.132;6.574;2023-07-02T09:58:06;5.13;;;0.50;;
57752;SDS011;43583;53.132;6.574;2023-07-02T10:00:32;3.58;;;0.60;;
57752;SDS011;43583;53.132;6.574;2023-07-02T10:02:58;3.30;;;0.63;;
57752;SDS011;43583;53.132;6.574;2023-07-02T10:05:25;5.22;;;0.63;;
57752;SDS011;43583;53.132;6.574;2023-07-02T10:07:52;4.97;;;0.82;;
57752;SDS011;43583;53.132;6.574;2023-07-02T10:10:30;4.53;;;0.93;;
57752;SDS011;43583;53.132;6.574;2023-07-02T10:12:57;3.38;;;0.30;;
57752;SDS011;43583;53.132;6.574;2023-07-02T10:15:26;2.92;;;0.40;;
57752;SDS011;43583;53.132;6.574;2023-07-02T10:18:01;4.68;;;0.50;;
57752;SDS011;43583;53.132;6.574;2023-07-02T10:20:38;3.47;;;0.43;;
57752;SDS011;43583;53.132;6.574;2023-07-02T10:23:05;4.50;;;0.82;;
57752;SDS011;43583;53.132;6.574;2023-07-02T10:25:36;3.15;;;0.60;;
57752;SDS011;43583;53.132;6.574;2023-07-02T10:30:47;5.60;;;0.90;;
57752;SDS011;43583;53.132;6.574;2023-07-02T10:33:14;3.40;;;0.80;;
57752;SDS011;43583;53.132;6.574;2023-07-02T10:35:40;5.18;;;0.63;;
57752;SDS011;43583;53.132;6.574;2023-07-02T10:38:20;4.03;;;0.50;;
57752;SDS011;43583;53.132;6.574;2023-07-02T10:40:46;5.35;;;1.10;;
57752;SDS011;43583;53.132;6.574;2023-07-02T10:43:25;1.77;;;0.40;;
57752;SDS011;43583;53.132;6.574;2023-07-02T10:48:19;5.35;;;0.55;;
57752;SDS011;43583;53.132;6.574;2023-07-02T10:50:44;1.45;;;0.50;;
57752;SDS011;43583;53.132;6.574;2023-07-02T10:53:19;1.38;;;0.30;;
57752;SDS011;43583;53.132;6.574;2023-07-02T10:55:45;3.90;;;0.40;;
57752;SDS011;43583;53.132;6.574;2023-07-02T10:58:19;5.13;;;0.55;;
57752;SDS011;43583;53.132;6.574;2023-07-02T11:00:45;3.42;;;0.60;;
57752;SDS011;43583;53.132;6.574;2023-07-02T11:03:18;2.88;;;0.73;;
57752;SDS011;43583;53.132;6.574;2023-07-02T11:05:45;3.83;;;0.35;;
57752;SDS011;43583;53.132;6.574;2023-07-02T11:08:11;4.95;;;0.55;;
57752;SDS011;43583;53.132;6.574;2023-07-02T11:10:37;4.32;;;0.70;;
57752;SDS011;43583;53.132;6.574;2023-07-02T11:13:13;4.22;;;0.70;;
57752;SDS011;43583;53.132;6.574;2023-07-02T11:15:40;4.70;;;0.80;;
57752;SDS011;43583;53.132;6.574;2023-07-02T11:18:11;2.55;;;1.10;;
57752;SDS011;43583;53.132;6.574;2023-07-02T11:20:41;2.60;;;0.40;;
57752;SDS011;43583;53.132;6.574;2023-07-02T11:23:21;6.35;;;0.70;;
57752;SDS011;43583;53.132;6.574;2023-07-02T11:25:57;2.17;;;0.40;;
57752;SDS011;43583;53.132;6.574;2023-07-02T11:28:24;3.75;;;0.50;;
57752;SDS011;43583;53.132;6.574;2023-07-02T11:30:50;2.65;;;0.40;;
57752;SDS011;43583;53.132;6.574;2023-07-02T11:33:16;3.63;;;0.50;;
57752;SDS011;43583;53.132;6.574;2023-07-02T11:35:42;4.50;;;0.55;;
57752;SDS011;43583;53.132;6.574;2023-07-02T11:38:10;2.80;;;0.60;;
57752;SDS011;43583;53.132;6.574;2023-07-02T11:40:36;4.78;;;0.63;;
57752;SDS011;43583;53.132;6.574;2023-07-02T11:43:02;8.02;;;0.75;;
57752;SDS011;43583;53.132;6.574;2023-07-02T11:45:28;4.00;;;0.30;;
57752;SDS011;43583;53.132;6.574;2023-07-02T11:47:54;4.03;;;0.43;;
57752;SDS011;43583;53.132;6.574;2023-07-02T11:50:19;2.28;;;0.30;;
57752;SDS011;43583;53.132;6.574;2023-07-02T11:52:45;3.10;;;0.35;;
57752;SDS011;43583;53.132;6.574;2023-07-02T11:55:11;2.80;;;0.35;;
57752;SDS011;43583;53.132;6.574;2023-07-02T11:57:36;5.20;;;0.63;;
57752;SDS011;43583;53.132;6.574;2023-07-02T12:00:02;3.85;;;0.40;;
57752;SDS011;43583;53.132;6.574;2023-07-02T12:02:28;5.32;;;0.77;;
57752;SDS011;43583;53.132;6.574;2023-07-02T12:04:53;4.47;;;0.60;;
57752;SDS011;43583;53.132;6.574;2023-07-02T12:07:19;2.38;;;0.82;;
57752;SDS011;43583;53.132;6.574;2023-07-02T12:09:44;3.38;;;0.70;;
57752;SDS011;43583;53.132;6.574;2023-07-02T12:12:10;2.25;;;0.32;;
57752;SDS011;43583;53.132;6.574;2023-07-02T12:14:36;3.80;;;0.38;;
57752;SDS011;43583;53.132;6.574;2023-07-02T12:17:02;2.63;;;0.40;;
57752;SDS011;43583;53.132;6.574;2023-07-02T12:19:29;3.75;;;0.35;;
57752;SDS011;43583;53.132;6.574;2023-07-02T12:21:55;2.90;;;0.40;;
57752;SDS011;43583;53.132;6.574;2023-07-02T12:24:20;1.85;;;0.40;;
57752;SDS011;43583;53.132;6.574;2023-07-02T12:26:46;1.67;;;0.65;;
57752;SDS011;43583;53.132;6.574;2023-07-02T12:29:11;2.45;;;0.30;;
57752;SDS011;43583;53.132;6.574;2023-07-02T12:31:37;3.75;;;0.45;;
57752;SDS011;43583;53.132;6.574;2023-07-02T12:34:02;2.58;;;0.73;;
57752;SDS011;43583;53.132;6.574;2023-07-02T12:36:28;3.15;;;0.40;;
57752;SDS011;43583;53.132;6.574;2023-07-02T12:38:54;2.38;;;0.68;;
57752;SDS011;43583;53.132;6.574;2023-07-02T12:41:19;3.22;;;0.50;;
57752;SDS011;43583;53.132;6.574;2023-07-02T12:43:45;2.42;;;0.47;;
57752;SDS011;43583;53.132;6.574;2023-07-02T12:46:10;3.25;;;0.60;;
57752;SDS011;43583;53.132;6.574;2023-07-02T12:48:36;5.45;;;0.60;;
57752;SDS011;43583;53.132;6.574;2023-07-02T12:51:01;2.45;;;0.40;;
57752;SDS011;43583;53.132;6.574;2023-07-02T12:53:27;4.18;;;0.70;;
57752;SDS011;43583;53.132;6.574;2023-07-02T12:55:53;4.93;;;1.02;;
57752;SDS011;43583;53.132;6.574;2023-07-02T12:58:19;3.08;;;0.50;;
57752;SDS011;43583;53.132;6.574;2023-07-02T13:00:46;6.10;;;0.77;;
57752;SDS011;43583;53.132;6.574;2023-07-02T13:03:12;5.90;;;1.15;;
57752;SDS011;43583;53.132;6.574;2023-07-02T13:05:38;1.88;;;0.40;;
57752;SDS011;43583;53.132;6.574;2023-07-02T13:08:04;3.00;;;0.63;;
57752;SDS011;43583;53.132;6.574;2023-07-02T13:10:31;4.15;;;0.65;;
57752;SDS011;43583;53.132;6.574;2023-07-02T13:12:58;6.18;;;1.13;;
57752;SDS011;43583;53.132;6.574;2023-07-02T13:15:23;3.33;;;0.88;;
57752;SDS011;43583;53.132;6.574;2023-07-02T13:17:49;6.07;;;1.98;;
57752;SDS011;43583;53.132;6.574;2023-07-02T13:20:14;3.90;;;1.00;;
57752;SDS011;43583;53.132;6.574;2023-07-02T13:22:40;5.10;;;1.02;;
57752;SDS011;43583;53.132;6.574;2023-07-02T13:25:06;5.20;;;0.90;;
57752;SDS011;43583;53.132;6.574;2023-07-02T13:27:32;5.00;;;1.45;;
57752;SDS011;43583;53.132;6.574;2023-07-02T13:29:58;4.50;;;1.05;;
57752;SDS011;43583;53.132;6.574;2023-07-02T13:32:23;5.13;;;1.10;;
57752;SDS011;43583;53.132;6.574;2023-07-02T13:34:49;8.20;;;1.10;;
57752;SDS011;43583;53.132;6.574;2023-07-02T13:37:15;7.22;;;1.17;;
57752;SDS011;43583;53.132;6.574;2023-07-02T13:39:43;5.32;;;1.50;;
57752;SDS011;43583;53.132;6.574;2023-07-02T13:42:10;4.22;;;1.02;;
57752;SDS011;43583;53.132;6.574;2023-07-02T13:44:36;4.93;;;1.33;;
57752;SDS011;43583;53.132;6.574;2023-07-02T13:47:01;4.85;;;1.15;;
57752;SDS011;43583;53.132;6.574;2023-07-02T13:49:27;5.00;;;1.05;;
57752;SDS011;43583;53.132;6.574;2023-07-02T13:51:52;6.60;;;1.05;;
57752;SDS011;43583;53.132;6.574;2023-07-02T13:54:18;3.60;;;1.33;;
57752;SDS011;43583;53.132;6.574;2023-07-02T13:56:44;4.80;;;1.20;;
57752;SDS011;43583;53.132;6.574;2023-07-02T13:59:11;11.43;;;1.30;;
57752;SDS011;43583;53.132;6.574;2023-07-02T14:01:36;6.88;;;1.08;;
57752;SDS011;43583;53.132;6.574;2023-07-02T14:04:02;5.20;;;1.45;;
57752;SDS011;43583;53.132;6.574;2023-07-02T14:06:28;3.05;;;0.85;;
57752;SDS011;43583;53.132;6.574;2023-07-02T14:08:54;6.18;;;1.80;;
57752;SDS011;43583;53.132;6.574;2023-07-02T14:11:20;4.28;;;1.10;;
57752;SDS011;43583;53.132;6.574;2023-07-02T14:13:46;4.88;;;1.52;;
57752;SDS011;43583;53.132;6.574;2023-07-02T14:16:12;6.53;;;1.38;;
57752;SDS011;43583;53.132;6.574;2023-07-02T14:18:38;4.45;;;0.98;;
57752;SDS011;43583;53.132;6.574;2023-07-02T14:21:04;7.10;;;1.20;;
57752;SDS011;43583;53.132;6.574;2023-07-02T14:23:30;5.63;;;1.52;;
57752;SDS011;43583;53.132;6.574;2023-07-02T14:25:55;3.67;;;0.85;;
57752;SDS011;43583;53.132;6.574;2023-07-02T14:28:21;6.93;;;1.70;;
57752;SDS011;43583;53.132;6.574;2023-07-02T14:30:46;4.70;;;1.45;;
57752;SDS011;43583;53.132;6.574;2023-07-02T14:33:13;6.28;;;1.13;;
57752;SDS011;43583;53.132;6.574;2023-07-02T14:35:39;5.32;;;1.45;;
57752;SDS011;43583;53.132;6.574;2023-07-02T14:38:05;3.28;;;1.20;;
57752;SDS011;43583;53.132;6.574;2023-07-02T14:40:31;4.38;;;1.50;;
57752;SDS011;43583;53.132;6.574;2023-07-02T14:42:57;8.98;;;1.27;;
57752;SDS011;43583;53.132;6.574;2023-07-02T14:45:23;3.47;;;1.10;;
57752;SDS011;43583;53.132;6.574;2023-07-02T14:47:49;3.60;;;1.13;;
57752;SDS011;43583;53.132;6.574;2023-07-02T14:50:14;7.03;;;1.38;;